sensor_id;sensor_type;location;lat;lon;timestamp;P1;durP1;ratioP1;P2;durP2;ratioP2
10465;SDS011;5280;42.600;23.556;2024-03-08T00:00:51;10.27;;;8.17;;
10465;SDS011;5280;42.600;23.556;2024-03-08T00:03:19;8.30;;;7.40;;
10465;SDS011;5280;42.600;23.556;2024-03-08T00:05:47;8.30;;;7.33;;
10465;SDS011;5280;42.600;23.556;2024-03-08T00:08:14;9.53;;;7.97;;
10465;SDS011;5280;42.600;23.556;2024-03-08T00:10:46;9.93;;;8.33;;
10465;SDS011;5280;42.600;23.556;2024-03-08T00:13:13;11.20;;;9.13;;
10465;SDS011;5280;42.600;23.556;2024-03-08T00:15:40;11.97;;;9.97;;
10465;SDS011;5280;42.600;23.556;2024-03-08T00:18:07;12.97;;;10.30;;
10465;SDS011;5280;42.600;23.556;2024-03-08T00:20:35;10.27;;;9.13;;
10465;SDS011;5280;42.600;23.556;2024-03-08T00:23:03;13.07;;;10.23;;
10465;SDS011;5280;42.600;23.556;2024-03-08T00:25:30;12.57;;;9.50;;
10465;SDS011;5280;42.600;23.556;2024-03-08T00:27:57;12.13;;;9.87;;
10465;SDS011;5280;42.600;23.556;2024-03-08T00:30:27;10.63;;;9.47;;
10465;SDS011;5280;42.600;23.556;2024-03-08T00:32:56;12.37;;;9.80;;
10465;SDS011;5280;42.600;23.556;2024-03-08T00:35:23;13.23;;;10.40;;
10465;SDS011;5280;42.600;23.556;2024-03-08T00:37:50;12.30;;;10.07;;
10465;SDS011;5280;42.600;23.556;2024-03-08T00:40:18;13.43;;;10.77;;
10465;SDS011;5280;42.600;23.556;2024-03-08T00:42:45;12.57;;;10.53;;
10465;SDS011;5280;42.600;23.556;2024-03-08T00:45:12;11.87;;;10.17;;
10465;SDS011;5280;42.600;23.556;2024-03-08T00:47:39;13.40;;;10.63;;
10465;SDS011;5280;42.600;23.556;2024-03-08T00:50:09;12.20;;;10.30;;
10465;SDS011;5280;42.600;23.556;2024-03-08T00:52:40;12.07;;;10.03;;
10465;SDS011;5280;42.600;23.556;2024-03-08T00:55:07;11.17;;;9.57;;
10465;SDS011;5280;42.600;23.556;2024-03-08T00:57:37;12.93;;;10.23;;
10465;SDS011;5280;42.600;23.556;2024-03-08T01:00:05;9.87;;;8.60;;
10465;SDS011;5280;42.600;23.556;2024-03-08T01:02:37;9.70;;;7.97;;
10465;SDS011;5280;42.600;23.556;2024-03-08T01:05:04;10.80;;;7.90;;
10465;SDS011;5280;42.600;23.556;2024-03-08T01:07:34;9.40;;;7.40;;
10465;SDS011;5280;42.600;23.556;2024-03-08T01:10:01;9.07;;;7.57;;
10465;SDS011;5280;42.600;23.556;2024-03-08T01:12:28;8.47;;;7.33;;
10465;SDS011;5280;42.600;23.556;2024-03-08T01:14:57;10.07;;;7.93;;
10465;SDS011;5280;42.600;23.556;2024-03-08T01:17:24;8.97;;;8.00;;
10465;SDS011;5280;42.600;23.556;2024-03-08T01:19:51;10.57;;;7.87;;
10465;SDS011;5280;42.600;23.556;2024-03-08T01:22:19;8.43;;;7.50;;
10465;SDS011;5280;42.600;23.556;2024-03-08T01:24:48;11.70;;;8.90;;
10465;SDS011;5280;42.600;23.556;2024-03-08T01:27:15;9.67;;;7.77;;
10465;SDS011;5280;42.600;23.556;2024-03-08T01:29:41;10.97;;;9.10;;
10465;SDS011;5280;42.600;23.556;2024-03-08T01:32:10;13.07;;;8.97;;
10465;SDS011;5280;42.600;23.556;2024-03-08T01:34:37;11.27;;;9.77;;
10465;SDS011;5280;42.600;23.556;2024-03-08T01:37:07;10.70;;;9.27;;
10465;SDS011;5280;42.600;23.556;2024-03-08T01:39:34;11.50;;;9.13;;
10465;SDS011;5280;42.600;23.556;2024-03-08T01:42:01;10.47;;;8.67;;
10465;SDS011;5280;42.600;23.556;2024-03-08T01:44:28;11.87;;;9.47;;
10465;SDS011;5280;42.600;23.556;2024-03-08T01:47:14;10.93;;;9.17;;
10465;SDS011;5280;42.600;23.556;2024-03-08T01:53:41;12.17;;;9.47;;
10465;SDS011;5280;42.600;23.556;2024-03-08T01:56:12;8.97;;;8.03;;
10465;SDS011;5280;42.600;23.556;2024-03-08T01:58:40;10.33;;;9.00;;
10465;SDS011;5280;42.600;23.556;2024-03-08T02:01:09;10.87;;;8.93;;
10465;SDS011;5280;42.600;23.556;2024-03-08T02:03:40;10.67;;;8.20;;
10465;SDS011;5280;42.600;23.556;2024-03-08T02:06:09;12.43;;;8.97;;
10465;SDS011;5280;42.600;23.556;2024-03-08T02:08:39;11.33;;;9.10;;
10465;SDS011;5280;42.600;23.556;2024-03-08T02:11:10;9.60;;;8.57;;
10465;SDS011;5280;42.600;23.556;2024-03-08T02:13:37;10.60;;;7.77;;
10465;SDS011;5280;42.600;23.556;2024-03-08T02:16:04;9.73;;;8.43;;
10465;SDS011;5280;42.600;23.556;2024-03-08T02:18:33;8.90;;;7.53;;
10465;SDS011;5280;42.600;23.556;2024-03-08T02:21:02;10.57;;;8.53;;
10465;SDS011;5280;42.600;23.556;2024-03-08T02:23:30;10.07;;;7.93;;
10465;SDS011;5280;42.600;23.556;2024-03-08T02:25:59;8.37;;;7.43;;
10465;SDS011;5280;42.600;23.556;2024-03-08T02:28:26;9.63;;;8.17;;
10465;SDS011;5280;42.600;23.556;2024-03-08T02:30:54;8.80;;;7.30;;
10465;SDS011;5280;42.600;23.556;2024-03-08T02:33:21;9.07;;;7.60;;
10465;SDS011;5280;42.600;23.556;2024-03-08T02:35:49;9.43;;;8.10;;
10465;SDS011;5280;42.600;23.556;2024-03-08T02:38:18;8.63;;;7.47;;
10465;SDS011;5280;42.600;23.556;2024-03-08T02:40:47;8.93;;;7.47;;
10465;SDS011;5280;42.600;23.556;2024-03-08T02:43:15;8.87;;;7.93;;
10465;SDS011;5280;42.600;23.556;2024-03-08T02:45:43;8.57;;;6.87;;
10465;SDS011;5280;42.600;23.556;2024-03-08T02:48:13;6.63;;;5.90;;
10465;SDS011;5280;42.600;23.556;2024-03-08T02:50:41;5.73;;;4.90;;
10465;SDS011;5280;42.600;23.556;2024-03-08T02:53:09;6.07;;;5.47;;
10465;SDS011;5280;42.600;23.556;2024-03-08T02:55:38;6.10;;;5.37;;
10465;SDS011;5280;42.600;23.556;2024-03-08T02:58:06;6.27;;;4.83;;
10465;SDS011;5280;42.600;23.556;2024-03-08T03:00:35;5.80;;;4.67;;
10465;SDS011;5280;42.600;23.556;2024-03-08T03:03:02;5.60;;;4.40;;
10465;SDS011;5280;42.600;23.556;2024-03-08T03:05:29;3.83;;;3.47;;
10465;SDS011;5280;42.600;23.556;2024-03-08T03:07:56;5.30;;;3.70;;
10465;SDS011;5280;42.600;23.556;2024-03-08T03:10:23;3.97;;;3.57;;
10465;SDS011;5280;42.600;23.556;2024-03-08T03:12:52;3.23;;;2.97;;
10465;SDS011;5280;42.600;23.556;2024-03-08T03:15:19;3.20;;;2.90;;
10465;SDS011;5280;42.600;23.556;2024-03-08T03:17:46;3.10;;;2.90;;
10465;SDS011;5280;42.600;23.556;2024-03-08T03:20:14;2.60;;;2.40;;
10465;SDS011;5280;42.600;23.556;2024-03-08T03:22:48;2.43;;;2.23;;
10465;SDS011;5280;42.600;23.556;2024-03-08T03:25:17;2.30;;;2.10;;
10465;SDS011;5280;42.600;23.556;2024-03-08T03:27:52;2.03;;;1.93;;
10465;SDS011;5280;42.600;23.556;2024-03-08T03:30:21;2.37;;;2.17;;
10465;SDS011;5280;42.600;23.556;2024-03-08T03:32:48;1.97;;;1.80;;
10465;SDS011;5280;42.600;23.556;2024-03-08T03:35:16;1.80;;;1.70;;
10465;SDS011;5280;42.600;23.556;2024-03-08T03:37:43;1.83;;;1.73;;
10465;SDS011;5280;42.600;23.556;2024-03-08T03:40:26;1.50;;;1.40;;
10465;SDS011;5280;42.600;23.556;2024-03-08T03:42:55;1.50;;;1.40;;
10465;SDS011;5280;42.600;23.556;2024-03-08T03:45:22;1.53;;;1.43;;
10465;SDS011;5280;42.600;23.556;2024-03-08T03:47:48;1.20;;;1.20;;
10465;SDS011;5280;42.600;23.556;2024-03-08T03:50:16;1.73;;;1.63;;
10465;SDS011;5280;42.600;23.556;2024-03-08T03:52:44;1.50;;;1.40;;
10465;SDS011;5280;42.600;23.556;2024-03-08T03:55:13;4.03;;;1.20;;
10465;SDS011;5280;42.600;23.556;2024-03-08T03:57:42;1.20;;;1.20;;
10465;SDS011;5280;42.600;23.556;2024-03-08T04:00:12;1.40;;;1.30;;
10465;SDS011;5280;42.600;23.556;2024-03-08T04:02:42;1.33;;;1.30;;
10465;SDS011;5280;42.600;23.556;2024-03-08T04:05:10;1.13;;;1.13;;
10465;SDS011;5280;42.600;23.556;2024-03-08T04:07:40;1.27;;;1.20;;
10465;SDS011;5280;42.600;23.556;2024-03-08T04:10:08;1.43;;;1.33;;
10465;SDS011;5280;42.600;23.556;2024-03-08T04:12:36;1.30;;;1.20;;
10465;SDS011;5280;42.600;23.556;2024-03-08T04:15:04;1.63;;;1.53;;
10465;SDS011;5280;42.600;23.556;2024-03-08T04:17:34;1.27;;;1.27;;
10465;SDS011;5280;42.600;23.556;2024-03-08T04:20:02;1.90;;;1.80;;
10465;SDS011;5280;42.600;23.556;2024-03-08T04:22:34;2.23;;;2.03;;
10465;SDS011;5280;42.600;23.556;2024-03-08T04:25:02;2.43;;;2.23;;
10465;SDS011;5280;42.600;23.556;2024-03-08T04:27:29;2.03;;;1.93;;
10465;SDS011;5280;42.600;23.556;2024-03-08T04:29:57;2.50;;;2.30;;
10465;SDS011;5280;42.600;23.556;2024-03-08T04:32:24;2.27;;;2.13;;
10465;SDS011;5280;42.600;23.556;2024-03-08T04:34:53;2.40;;;2.20;;
10465;SDS011;5280;42.600;23.556;2024-03-08T04:37:20;2.70;;;2.50;;
10465;SDS011;5280;42.600;23.556;2024-03-08T04:39:47;2.97;;;2.50;;
10465;SDS011;5280;42.600;23.556;2024-03-08T04:42:14;3.10;;;2.80;;
10465;SDS011;5280;42.600;23.556;2024-03-08T04:44:46;4.27;;;2.87;;
10465;SDS011;5280;42.600;23.556;2024-03-08T04:47:13;3.87;;;3.37;;
10465;SDS011;5280;42.600;23.556;2024-03-08T04:49:40;5.43;;;4.07;;
10465;SDS011;5280;42.600;23.556;2024-03-08T04:52:08;4.50;;;3.83;;
10465;SDS011;5280;42.600;23.556;2024-03-08T04:54:36;5.40;;;4.50;;
10465;SDS011;5280;42.600;23.556;2024-03-08T04:57:02;6.43;;;4.77;;
10465;SDS011;5280;42.600;23.556;2024-03-08T04:59:29;6.23;;;4.80;;
10465;SDS011;5280;42.600;23.556;2024-03-08T05:01:57;5.83;;;4.77;;
10465;SDS011;5280;42.600;23.556;2024-03-08T05:04:24;5.57;;;4.93;;
10465;SDS011;5280;42.600;23.556;2024-03-08T05:06:51;6.43;;;5.30;;
10465;SDS011;5280;42.600;23.556;2024-03-08T05:09:22;9.00;;;5.43;;
10465;SDS011;5280;42.600;23.556;2024-03-08T05:11:49;6.57;;;5.30;;
10465;SDS011;5280;42.600;23.556;2024-03-08T05:14:26;6.60;;;4.70;;
10465;SDS011;5280;42.600;23.556;2024-03-08T05:16:54;6.10;;;4.83;;
10465;SDS011;5280;42.600;23.556;2024-03-08T05:19:22;6.10;;;4.77;;
10465;SDS011;5280;42.600;23.556;2024-03-08T05:21:49;6.00;;;4.90;;
10465;SDS011;5280;42.600;23.556;2024-03-08T05:24:16;5.27;;;4.67;;
10465;SDS011;5280;42.600;23.556;2024-03-08T05:26:45;6.27;;;4.40;;
10465;SDS011;5280;42.600;23.556;2024-03-08T05:29:15;5.53;;;4.47;;
10465;SDS011;5280;42.600;23.556;2024-03-08T05:31:45;5.73;;;4.83;;
10465;SDS011;5280;42.600;23.556;2024-03-08T05:34:13;6.10;;;4.67;;
10465;SDS011;5280;42.600;23.556;2024-03-08T05:36:40;5.23;;;4.70;;
10465;SDS011;5280;42.600;23.556;2024-03-08T05:39:09;5.13;;;4.37;;
10465;SDS011;5280;42.600;23.556;2024-03-08T05:41:37;4.57;;;4.17;;
10465;SDS011;5280;42.600;23.556;2024-03-08T05:44:05;5.03;;;4.23;;
10465;SDS011;5280;42.600;23.556;2024-03-08T05:46:32;4.80;;;4.27;;
10465;SDS011;5280;42.600;23.556;2024-03-08T05:49:00;4.87;;;4.37;;
10465;SDS011;5280;42.600;23.556;2024-03-08T05:51:33;4.47;;;4.07;;
10465;SDS011;5280;42.600;23.556;2024-03-08T05:54:01;4.30;;;3.90;;
10465;SDS011;5280;42.600;23.556;2024-03-08T05:56:28;4.43;;;4.03;;
10465;SDS011;5280;42.600;23.556;2024-03-08T05:58:58;4.77;;;4.13;;
10465;SDS011;5280;42.600;23.556;2024-03-08T06:01:27;4.40;;;3.87;;
10465;SDS011;5280;42.600;23.556;2024-03-08T06:03:54;4.47;;;4.07;;
10465;SDS011;5280;42.600;23.556;2024-03-08T06:06:22;7.10;;;5.13;;
10465;SDS011;5280;42.600;23.556;2024-03-08T06:08:50;4.33;;;3.93;;
10465;SDS011;5280;42.600;23.556;2024-03-08T06:11:20;6.10;;;4.23;;
10465;SDS011;5280;42.600;23.556;2024-03-08T06:13:47;4.60;;;4.10;;
10465;SDS011;5280;42.600;23.556;2024-03-08T06:16:15;6.53;;;4.37;;
10465;SDS011;5280;42.600;23.556;2024-03-08T06:18:44;4.07;;;3.67;;
10465;SDS011;5280;42.600;23.556;2024-03-08T06:21:12;4.20;;;3.80;;
10465;SDS011;5280;42.600;23.556;2024-03-08T06:23:39;4.10;;;3.60;;
10465;SDS011;5280;42.600;23.556;2024-03-08T06:26:06;5.10;;;3.90;;
10465;SDS011;5280;42.600;23.556;2024-03-08T06:28:34;4.27;;;3.87;;
10465;SDS011;5280;42.600;23.556;2024-03-08T06:31:01;4.47;;;3.97;;
10465;SDS011;5280;42.600;23.556;2024-03-08T06:33:29;4.47;;;4.07;;
10465;SDS011;5280;42.600;23.556;2024-03-08T06:35:59;6.27;;;4.07;;
10465;SDS011;5280;42.600;23.556;2024-03-08T06:38:25;4.30;;;3.90;;
10465;SDS011;5280;42.600;23.556;2024-03-08T06:40:53;3.70;;;3.40;;
10465;SDS011;5280;42.600;23.556;2024-03-08T06:43:20;3.80;;;3.40;;
10465;SDS011;5280;42.600;23.556;2024-03-08T06:45:47;3.77;;;3.47;;
10465;SDS011;5280;42.600;23.556;2024-03-08T06:48:14;4.10;;;3.47;;
10465;SDS011;5280;42.600;23.556;2024-03-08T06:50:47;3.80;;;3.50;;
10465;SDS011;5280;42.600;23.556;2024-03-08T06:53:16;4.10;;;3.70;;
10465;SDS011;5280;42.600;23.556;2024-03-08T06:55:44;3.50;;;3.20;;
10465;SDS011;5280;42.600;23.556;2024-03-08T06:58:11;3.43;;;3.13;;
10465;SDS011;5280;42.600;23.556;2024-03-08T07:00:38;3.80;;;3.50;;
10465;SDS011;5280;42.600;23.556;2024-03-08T07:03:06;3.80;;;3.50;;
10465;SDS011;5280;42.600;23.556;2024-03-08T07:05:37;3.53;;;3.07;;
10465;SDS011;5280;42.600;23.556;2024-03-08T07:08:05;3.40;;;3.10;;
10465;SDS011;5280;42.600;23.556;2024-03-08T07:10:33;3.47;;;3.17;;
10465;SDS011;5280;42.600;23.556;2024-03-08T07:13:02;3.10;;;2.73;;
10465;SDS011;5280;42.600;23.556;2024-03-08T07:15:29;4.10;;;2.90;;
10465;SDS011;5280;42.600;23.556;2024-03-08T07:17:57;2.90;;;2.60;;
10465;SDS011;5280;42.600;23.556;2024-03-08T07:20:26;3.47;;;3.17;;
10465;SDS011;5280;42.600;23.556;2024-03-08T07:22:54;3.10;;;2.80;;
10465;SDS011;5280;42.600;23.556;2024-03-08T07:25:21;3.93;;;2.97;;
10465;SDS011;5280;42.600;23.556;2024-03-08T07:27:50;3.27;;;2.60;;
10465;SDS011;5280;42.600;23.556;2024-03-08T07:30:18;3.20;;;2.90;;
10465;SDS011;5280;42.600;23.556;2024-03-08T07:33:04;3.53;;;3.20;;
10465;SDS011;5280;42.600;23.556;2024-03-08T07:35:35;3.57;;;3.27;;
10465;SDS011;5280;42.600;23.556;2024-03-08T07:38:03;3.40;;;3.10;;
10465;SDS011;5280;42.600;23.556;2024-03-08T07:40:30;3.40;;;3.10;;
10465;SDS011;5280;42.600;23.556;2024-03-08T07:42:59;4.37;;;2.93;;
10465;SDS011;5280;42.600;23.556;2024-03-08T07:45:26;3.13;;;2.90;;
10465;SDS011;5280;42.600;23.556;2024-03-08T07:47:53;2.87;;;2.67;;
10465;SDS011;5280;42.600;23.556;2024-03-08T07:50:21;3.80;;;3.40;;
10465;SDS011;5280;42.600;23.556;2024-03-08T07:52:48;3.13;;;2.90;;
10465;SDS011;5280;42.600;23.556;2024-03-08T07:55:15;3.40;;;3.10;;
10465;SDS011;5280;42.600;23.556;2024-03-08T07:57:42;3.70;;;3.17;;
10465;SDS011;5280;42.600;23.556;2024-03-08T08:00:11;4.10;;;3.20;;
10465;SDS011;5280;42.600;23.556;2024-03-08T08:02:42;3.67;;;3.30;;
10465;SDS011;5280;42.600;23.556;2024-03-08T08:05:10;3.60;;;2.83;;
10465;SDS011;5280;42.600;23.556;2024-03-08T08:07:38;3.53;;;2.90;;
10465;SDS011;5280;42.600;23.556;2024-03-08T08:10:09;2.50;;;2.30;;
10465;SDS011;5280;42.600;23.556;2024-03-08T08:12:42;3.17;;;2.87;;
10465;SDS011;5280;42.600;23.556;2024-03-08T08:15:10;2.40;;;2.20;;
10465;SDS011;5280;42.600;23.556;2024-03-08T08:17:38;2.80;;;2.50;;
10465;SDS011;5280;42.600;23.556;2024-03-08T08:20:05;3.37;;;3.07;;
10465;SDS011;5280;42.600;23.556;2024-03-08T08:22:32;2.87;;;2.60;;
10465;SDS011;5280;42.600;23.556;2024-03-08T08:24:59;3.13;;;2.87;;
10465;SDS011;5280;42.600;23.556;2024-03-08T08:27:27;2.83;;;2.63;;
10465;SDS011;5280;42.600;23.556;2024-03-08T08:29:53;3.07;;;2.40;;
10465;SDS011;5280;42.600;23.556;2024-03-08T08:32:22;2.97;;;2.57;;
10465;SDS011;5280;42.600;23.556;2024-03-08T08:34:49;2.53;;;2.33;;
10465;SDS011;5280;42.600;23.556;2024-03-08T08:37:16;2.60;;;2.40;;
10465;SDS011;5280;42.600;23.556;2024-03-08T08:39:43;3.60;;;2.60;;
10465;SDS011;5280;42.600;23.556;2024-03-08T08:42:10;2.80;;;2.60;;
10465;SDS011;5280;42.600;23.556;2024-03-08T08:44:42;2.70;;;2.50;;
10465;SDS011;5280;42.600;23.556;2024-03-08T08:47:09;2.63;;;2.43;;
10465;SDS011;5280;42.600;23.556;2024-03-08T08:49:38;2.97;;;2.67;;
10465;SDS011;5280;42.600;23.556;2024-03-08T08:52:05;2.97;;;2.70;;
10465;SDS011;5280;42.600;23.556;2024-03-08T08:54:32;3.10;;;2.80;;
10465;SDS011;5280;42.600;23.556;2024-03-08T08:56:59;2.70;;;2.50;;
10465;SDS011;5280;42.600;23.556;2024-03-08T08:59:32;3.17;;;2.90;;
10465;SDS011;5280;42.600;23.556;2024-03-08T09:02:01;2.83;;;2.63;;
10465;SDS011;5280;42.600;23.556;2024-03-08T09:04:28;3.13;;;2.83;;
10465;SDS011;5280;42.600;23.556;2024-03-08T09:06:57;3.00;;;2.80;;
10465;SDS011;5280;42.600;23.556;2024-03-08T09:09:24;3.10;;;2.80;;
10465;SDS011;5280;42.600;23.556;2024-03-08T09:11:51;3.10;;;2.70;;
10465;SDS011;5280;42.600;23.556;2024-03-08T09:14:19;2.63;;;2.43;;
10465;SDS011;5280;42.600;23.556;2024-03-08T09:16:46;3.00;;;2.80;;
10465;SDS011;5280;42.600;23.556;2024-03-08T09:19:13;3.10;;;2.37;;
10465;SDS011;5280;42.600;23.556;2024-03-08T09:21:40;2.67;;;2.47;;
10465;SDS011;5280;42.600;23.556;2024-03-08T09:24:09;2.67;;;2.47;;
10465;SDS011;5280;42.600;23.556;2024-03-08T09:26:36;2.40;;;2.20;;
10465;SDS011;5280;42.600;23.556;2024-03-08T09:29:03;1.80;;;1.70;;
10465;SDS011;5280;42.600;23.556;2024-03-08T09:31:32;1.80;;;1.70;;
10465;SDS011;5280;42.600;23.556;2024-03-08T09:33:59;1.87;;;1.77;;
10465;SDS011;5280;42.600;23.556;2024-03-08T09:36:26;2.23;;;2.00;;
10465;SDS011;5280;42.600;23.556;2024-03-08T09:38:53;1.73;;;1.63;;
10465;SDS011;5280;42.600;23.556;2024-03-08T09:41:22;2.50;;;2.30;;
10465;SDS011;5280;42.600;23.556;2024-03-08T09:43:49;2.70;;;1.97;;
10465;SDS011;5280;42.600;23.556;2024-03-08T09:46:16;3.43;;;2.80;;
10465;SDS011;5280;42.600;23.556;2024-03-08T09:48:45;2.70;;;1.87;;
10465;SDS011;5280;42.600;23.556;2024-03-08T09:51:13;2.07;;;1.93;;
10465;SDS011;5280;42.600;23.556;2024-03-08T09:53:40;1.93;;;1.77;;
10465;SDS011;5280;42.600;23.556;2024-03-08T09:56:08;3.77;;;1.90;;
10465;SDS011;5280;42.600;23.556;2024-03-08T09:58:38;2.20;;;2.00;;
10465;SDS011;5280;42.600;23.556;2024-03-08T10:01:18;2.17;;;1.87;;
10465;SDS011;5280;42.600;23.556;2024-03-08T10:03:47;2.20;;;2.10;;
10465;SDS011;5280;42.600;23.556;2024-03-08T10:06:15;1.77;;;1.67;;
10465;SDS011;5280;42.600;23.556;2024-03-08T10:08:42;2.47;;;2.30;;
10465;SDS011;5280;42.600;23.556;2024-03-08T10:11:10;1.90;;;1.80;;
10465;SDS011;5280;42.600;23.556;2024-03-08T10:13:39;1.80;;;1.67;;
10465;SDS011;5280;42.600;23.556;2024-03-08T10:16:06;1.60;;;1.50;;
10465;SDS011;5280;42.600;23.556;2024-03-08T10:18:34;1.80;;;1.70;;
10465;SDS011;5280;42.600;23.556;2024-03-08T10:21:04;1.70;;;1.60;;
10465;SDS011;5280;42.600;23.556;2024-03-08T10:23:33;1.60;;;1.50;;
10465;SDS011;5280;42.600;23.556;2024-03-08T10:26:10;1.80;;;1.70;;
10465;SDS011;5280;42.600;23.556;2024-03-08T10:28:41;2.17;;;1.80;;
10465;SDS011;5280;42.600;23.556;2024-03-08T10:31:09;2.23;;;2.07;;
10465;SDS011;5280;42.600;23.556;2024-03-08T10:33:36;1.90;;;1.80;;
10465;SDS011;5280;42.600;23.556;2024-03-08T10:36:05;1.90;;;1.80;;
10465;SDS011;5280;42.600;23.556;2024-03-08T10:38:34;1.80;;;1.70;;
10465;SDS011;5280;42.600;23.556;2024-03-08T10:41:03;2.77;;;1.93;;
10465;SDS011;5280;42.600;23.556;2024-03-08T10:43:32;1.70;;;1.60;;
10465;SDS011;5280;42.600;23.556;2024-03-08T10:46:12;1.97;;;1.83;;
10465;SDS011;5280;42.600;23.556;2024-03-08T10:48:49;1.93;;;1.83;;
10465;SDS011;5280;42.600;23.556;2024-03-08T10:51:18;1.97;;;1.87;;
10465;SDS011;5280;42.600;23.556;2024-03-08T10:53:46;1.90;;;1.80;;
10465;SDS011;5280;42.600;23.556;2024-03-08T10:56:16;1.97;;;1.80;;
10465;SDS011;5280;42.600;23.556;2024-03-08T10:58:43;1.87;;;1.77;;
10465;SDS011;5280;42.600;23.556;2024-03-08T11:01:13;2.63;;;1.87;;
10465;SDS011;5280;42.600;23.556;2024-03-08T11:03:44;2.00;;;1.90;;
10465;SDS011;5280;42.600;23.556;2024-03-08T11:06:14;2.37;;;2.17;;
10465;SDS011;5280;42.600;23.556;2024-03-08T11:08:42;3.90;;;2.07;;
10465;SDS011;5280;42.600;23.556;2024-03-08T11:11:23;2.20;;;2.10;;
10465;SDS011;5280;42.600;23.556;2024-03-08T11:13:52;1.93;;;1.77;;
10465;SDS011;5280;42.600;23.556;2024-03-08T11:19:23;2.40;;;2.00;;
10465;SDS011;5280;42.600;23.556;2024-03-08T11:22:03;1.80;;;1.70;;
10465;SDS011;5280;42.600;23.556;2024-03-08T11:24:39;2.40;;;2.20;;
10465;SDS011;5280;42.600;23.556;2024-03-08T11:27:07;1.90;;;1.80;;
10465;SDS011;5280;42.600;23.556;2024-03-08T11:29:38;2.23;;;1.90;;
10465;SDS011;5280;42.600;23.556;2024-03-08T11:32:10;2.37;;;2.17;;
10465;SDS011;5280;42.600;23.556;2024-03-08T11:34:39;2.40;;;2.20;;
10465;SDS011;5280;42.600;23.556;2024-03-08T11:37:12;2.40;;;2.10;;
10465;SDS011;5280;42.600;23.556;2024-03-08T11:39:40;2.50;;;2.23;;
10465;SDS011;5280;42.600;23.556;2024-03-08T11:42:12;2.30;;;2.10;;
10465;SDS011;5280;42.600;23.556;2024-03-08T11:44:41;2.50;;;2.30;;
10465;SDS011;5280;42.600;23.556;2024-03-08T11:47:10;2.30;;;2.10;;
10465;SDS011;5280;42.600;23.556;2024-03-08T11:49:38;2.30;;;1.77;;
10465;SDS011;5280;42.600;23.556;2024-03-08T11:52:09;1.20;;;1.20;;
10465;SDS011;5280;42.600;23.556;2024-03-08T11:54:38;1.73;;;1.63;;
10465;SDS011;5280;42.600;23.556;2024-03-08T11:57:05;1.73;;;1.63;;
10465;SDS011;5280;42.600;23.556;2024-03-08T11:59:35;1.90;;;1.80;;
10465;SDS011;5280;42.600;23.556;2024-03-08T12:02:02;2.13;;;2.00;;
10465;SDS011;5280;42.600;23.556;2024-03-08T12:04:31;1.60;;;1.50;;
10465;SDS011;5280;42.600;23.556;2024-03-08T12:07:01;1.67;;;1.57;;
10465;SDS011;5280;42.600;23.556;2024-03-08T12:09:33;1.90;;;1.80;;
10465;SDS011;5280;42.600;23.556;2024-03-08T12:12:02;1.70;;;1.60;;
10465;SDS011;5280;42.600;23.556;2024-03-08T12:14:29;1.80;;;1.43;;
10465;SDS011;5280;42.600;23.556;2024-03-08T12:16:57;1.47;;;1.40;;
10465;SDS011;5280;42.600;23.556;2024-03-08T12:19:26;2.20;;;2.10;;
10465;SDS011;5280;42.600;23.556;2024-03-08T12:21:55;2.37;;;2.17;;
10465;SDS011;5280;42.600;23.556;2024-03-08T12:24:22;2.73;;;2.13;;
10465;SDS011;5280;42.600;23.556;2024-03-08T12:26:49;1.87;;;1.77;;
10465;SDS011;5280;42.600;23.556;2024-03-08T12:29:17;2.20;;;2.00;;
10465;SDS011;5280;42.600;23.556;2024-03-08T12:31:47;2.07;;;1.87;;
10465;SDS011;5280;42.600;23.556;2024-03-08T12:34:17;2.23;;;1.90;;
10465;SDS011;5280;42.600;23.556;2024-03-08T12:36:44;2.40;;;2.20;;
10465;SDS011;5280;42.600;23.556;2024-03-08T12:39:15;2.13;;;1.90;;
10465;SDS011;5280;42.600;23.556;2024-03-08T12:41:47;2.33;;;2.13;;
10465;SDS011;5280;42.600;23.556;2024-03-08T12:44:17;1.70;;;1.60;;
10465;SDS011;5280;42.600;23.556;2024-03-08T12:46:44;1.97;;;1.77;;
10465;SDS011;5280;42.600;23.556;2024-03-08T12:49:11;1.70;;;1.43;;
10465;SDS011;5280;42.600;23.556;2024-03-08T12:51:42;2.23;;;1.57;;
10465;SDS011;5280;42.600;23.556;2024-03-08T12:54:10;2.13;;;1.70;;
10465;SDS011;5280;42.600;23.556;2024-03-08T12:56:38;1.77;;;1.67;;
10465;SDS011;5280;42.600;23.556;2024-03-08T12:59:06;2.20;;;1.60;;
10465;SDS011;5280;42.600;23.556;2024-03-08T13:01:35;2.13;;;1.40;;
10465;SDS011;5280;42.600;23.556;2024-03-08T13:04:03;2.37;;;1.30;;
10465;SDS011;5280;42.600;23.556;2024-03-08T13:06:31;1.23;;;1.13;;
10465;SDS011;5280;42.600;23.556;2024-03-08T13:09:00;1.40;;;1.30;;
10465;SDS011;5280;42.600;23.556;2024-03-08T13:11:36;1.50;;;1.40;;
10465;SDS011;5280;42.600;23.556;2024-03-08T13:14:05;1.40;;;1.30;;
10465;SDS011;5280;42.600;23.556;2024-03-08T13:16:32;1.23;;;1.13;;
10465;SDS011;5280;42.600;23.556;2024-03-08T13:19:00;1.23;;;1.20;;
10465;SDS011;5280;42.600;23.556;2024-03-08T13:21:30;1.40;;;1.30;;
10465;SDS011;5280;42.600;23.556;2024-03-08T13:23:57;1.90;;;1.70;;
10465;SDS011;5280;42.600;23.556;2024-03-08T13:26:27;1.73;;;1.63;;
10465;SDS011;5280;42.600;23.556;2024-03-08T13:28:57;1.30;;;1.20;;
10465;SDS011;5280;42.600;23.556;2024-03-08T13:31:26;2.37;;;1.43;;
10465;SDS011;5280;42.600;23.556;2024-03-08T13:33:53;2.47;;;1.90;;
10465;SDS011;5280;42.600;23.556;2024-03-08T13:36:23;1.93;;;1.70;;
10465;SDS011;5280;42.600;23.556;2024-03-08T13:38:56;2.00;;;1.90;;
10465;SDS011;5280;42.600;23.556;2024-03-08T13:41:24;1.50;;;1.40;;
10465;SDS011;5280;42.600;23.556;2024-03-08T13:43:51;1.30;;;1.30;;
10465;SDS011;5280;42.600;23.556;2024-03-08T13:46:21;1.70;;;1.60;;
10465;SDS011;5280;42.600;23.556;2024-03-08T13:48:53;2.00;;;1.90;;
10465;SDS011;5280;42.600;23.556;2024-03-08T13:51:20;1.80;;;1.70;;
10465;SDS011;5280;42.600;23.556;2024-03-08T13:53:50;1.40;;;1.30;;
10465;SDS011;5280;42.600;23.556;2024-03-08T13:56:17;1.83;;;1.50;;
10465;SDS011;5280;42.600;23.556;2024-03-08T13:58:44;2.20;;;1.77;;
10465;SDS011;5280;42.600;23.556;2024-03-08T14:01:11;2.13;;;1.97;;
10465;SDS011;5280;42.600;23.556;2024-03-08T14:03:41;2.00;;;1.90;;
10465;SDS011;5280;42.600;23.556;2024-03-08T14:06:09;2.00;;;1.87;;
10465;SDS011;5280;42.600;23.556;2024-03-08T14:08:38;3.30;;;2.10;;
10465;SDS011;5280;42.600;23.556;2024-03-08T14:11:05;2.33;;;2.13;;
10465;SDS011;5280;42.600;23.556;2024-03-08T14:13:40;3.07;;;1.90;;
10465;SDS011;5280;42.600;23.556;2024-03-08T14:16:09;1.87;;;1.77;;
10465;SDS011;5280;42.600;23.556;2024-03-08T14:18:36;1.83;;;1.73;;
10465;SDS011;5280;42.600;23.556;2024-03-08T14:21:04;2.50;;;1.80;;
10465;SDS011;5280;42.600;23.556;2024-03-08T14:23:34;2.30;;;2.10;;
10465;SDS011;5280;42.600;23.556;2024-03-08T14:26:01;1.90;;;1.77;;
10465;SDS011;5280;42.600;23.556;2024-03-08T14:28:33;4.37;;;2.13;;
10465;SDS011;5280;42.600;23.556;2024-03-08T14:31:01;2.13;;;1.93;;
10465;SDS011;5280;42.600;23.556;2024-03-08T14:33:29;2.00;;;1.90;;
10465;SDS011;5280;42.600;23.556;2024-03-08T14:35:56;2.20;;;2.00;;
10465;SDS011;5280;42.600;23.556;2024-03-08T14:38:23;1.80;;;1.70;;
10465;SDS011;5280;42.600;23.556;2024-03-08T14:40:53;2.07;;;1.93;;
10465;SDS011;5280;42.600;23.556;2024-03-08T14:43:20;2.27;;;2.17;;
10465;SDS011;5280;42.600;23.556;2024-03-08T14:45:47;2.30;;;2.10;;
10465;SDS011;5280;42.600;23.556;2024-03-08T14:48:15;2.07;;;1.97;;
10465;SDS011;5280;42.600;23.556;2024-03-08T14:50:43;2.87;;;2.20;;
10465;SDS011;5280;42.600;23.556;2024-03-08T14:53:10;4.10;;;2.40;;
10465;SDS011;5280;42.600;23.556;2024-03-08T14:55:40;2.53;;;2.10;;
10465;SDS011;5280;42.600;23.556;2024-03-08T14:58:09;1.87;;;1.77;;
10465;SDS011;5280;42.600;23.556;2024-03-08T15:00:39;1.70;;;1.60;;